EET,Max TemperatureF,Mean TemperatureF,Min TemperatureF,Max Dew PointF,MeanDew PointF,Min DewpointF,Max Humidity, Mean Humidity, Min Humidity, Max Sea Level PressureIn, Mean Sea Level PressureIn, Min Sea Level PressureIn, Max VisibilityMiles, Mean VisibilityMiles, Min VisibilityMiles, Max Wind SpeedMPH, Mean Wind SpeedMPH, Max Gust SpeedMPH,PrecipitationIn, CloudCover, Events, WindDirDegrees
2012-10-1,96,78,61,39,31,25,33,18,4,30.12,30.07,29.93,12,10,6,7,4,,0.00,,,47
2012-10-2,90,76,62,43,36,30,33,22,9,30.15,30.07,29.94,12,7,6,15,4,,0.00,4,,259
2012-10-3,90,76,63,61,48,39,73,40,16,30.06,30.00,29.85,12,7,4,31,6,45,0.12,5,Rain-Thunderstorm,286
2012-10-4,88,72,57,54,46,36,77,44,11,29.95,29.85,29.69,12,7,6,16,4,,0.00,4,,222
2012-10-5,84,70,55,48,43,39,59,36,14,29.98,29.92,29.76,12,8,6,9,3,20,0.00,2,,45
2012-10-6,80,68,55,52,44,37,64,41,20,30.09,30.03,29.91,12,6,6,22,4,,0.03,6,Rain-Thunderstorm,301
2012-10-7,84,72,60,55,49,42,77,47,14,30.06,30.00,29.87,12,6,6,22,9,,0.01,5,Rain-Thunderstorm,20
2012-10-8,84,72,61,55,47,37,73,44,12,29.98,29.87,29.71,12,6,2,15,6,,0.00,6,Thunderstorm,232
2012-10-9,80,66,52,48,45,39,72,42,15,29.92,29.88,29.77,12,7,6,13,6,,0.00,5,,241
2012-10-10,70,64,59,59,54,46,94,71,40,30.04,29.97,29.81,12,6,6,14,6,25,0.24,6,Rain-Thunderstorm,102
2012-10-11,81,69,57,57,51,39,94,61,19,29.98,29.90,29.73,12,6,4,21,5,,0.00,6,Rain-Thunderstorm,238
2012-10-12,77,64,51,52,44,37,88,49,16,30.06,29.97,29.82,12,7,6,15,7,,0.00,2,,305
2012-10-13,78,65,52,45,41,37,67,42,14,30.12,30.06,29.98,12,9,6,8,6,,0.00,6,,308
2012-10-14,81,64,48,45,37,32,66,38,12,30.09,30.05,29.96,12,9,6,7,3,,0.00,,,28
2012-10-15,82,64,47,41,34,29,58,33,7,30.15,30.09,30.00,12,12,12,9,3,,0.00,,,334
2012-10-16,82,68,53,41,33,28,54,30,8,30.15,30.10,30.01,12,9,6,8,4,,0.00,,,314
2012-10-17,85,68,51,41,33,27,54,29,8,30.09,30.04,29.94,12,12,12,8,2,,0.00,,,280
2012-10-18,85,69,53,36,29,23,38,24,6,30.06,30.02,29.90,12,12,12,9,6,,0.00,,,320
2012-10-19,82,67,52,39,30,23,35,25,8,30.09,30.03,29.94,12,8,6,9,4,,0.00,1,,302
2012-10-20,68,59,50,55,44,28,88,57,25,30.18,30.11,29.96,12,6,6,16,6,,0.02,5,Rain,105
2012-10-21,71,62,53,57,54,52,100,79,41,30.18,30.13,30.06,12,6,6,9,3,,0.08,5,Rain-Thunderstorm,33
2012-10-22,75,63,51,57,52,46,94,71,36,30.15,30.08,29.94,12,6,6,9,4,,0.24,5,Rain,252
2012-10-23,66,62,57,59,58,57,100,92,71,30.06,30.01,29.91,12,6,4,13,4,,0.04,6,Rain,94
2012-10-24,68,62,55,59,57,54,100,86,64,30.09,30.06,30.00,12,6,6,17,6,,0.71,6,Rain-Thunderstorm,98
2012-10-25,58,56,54,55,55,54,100,95,87,30.09,29.96,29.86,12,6,4,9,5,,0.16,6,Rain-Thunderstorm,28
2012-10-26,63,58,53,55,54,52,100,87,68,29.98,29.88,29.78,12,6,6,10,7,,0.16,6,Rain-Thunderstorm,210
2012-10-27,66,58,51,55,53,50,100,86,58,30.04,30.00,29.94,12,6,6,7,2,,0.00,5,,108
2012-10-28,69,58,46,57,52,46,100,82,49,30.15,30.09,30.03,12,6,1,6,2,,0.00,,,232
2012-10-29,70,58,45,54,48,43,94,71,31,30.15,30.08,30.01,12,8,6,7,3,,0.00,1,,268
2012-10-30,69,57,45,54,49,45,93,75,41,30.06,30.04,30.00,12,8,6,7,1,,0.00,,,112
2012-10-31,70,58,45,54,49,45,94,73,34,30.12,30.09,30.04,12,10,6,7,3,,0.00,,,351